Meteo Giornale » Osservazioni meteo Italia » Ronchi Dei Legionari

ore: 15:50 - Osservazioni Meteo Ronchi Dei Legionari
Lat. 45° 49' N Lon. 13° 29' E Alt. 12 metri s.l.m.

sereno Europe/Rome

27 °C

Sereno

Temp. 24 Ore

17 °C

28 °C

Ovest/Sud-Ovest

14.8 Km/h

Dew point 13 °C

Umidità 42 %

Visibilità  10 Km

Il sole sorge alle ore 05:19

Il sole tramonta alle ore 20:47

Data e Ora Cielo e Fenomeni T °C DP °C Um. % Pres. hPa Vis. km Vento km/h
Oggi h: 15:50 sereno Sereno 27 13 42 1020 10 O/SO 14.8
Oggi h: 15:20 sereno Sereno 27 12 39 1020 10 O/SO 14.8
Oggi h: 14:50 sereno Sereno 27 11 36 1020 10 O/SO 14.8
Oggi h: 14:20 sereno Sereno 27 11 36 1020 10 SO 14.8
Oggi h: 13:50 sereno Sereno 27 11 36 1021 10 SO 13
Oggi h: 13:20 sereno Sereno 27 11 36 1021 10 SO 13
Oggi h: 12:50 sereno Sereno 27 12 39 1021 10 SO 13
Oggi h: 12:20 sereno Sereno 27 12 39 1021 10 S 9.3
Oggi h: 11:50 sereno Sereno 27 12 39 1021 10 O/SO 9.3
Oggi h: 11:20 sereno Sereno 27 12 39 1021 10 N 5.5
Oggi h: 10:50 sereno Sereno 26 12 41 1021 10 SO 7.4
Oggi h: 10:20 sereno Sereno 25 12 44 1021 10 N 5.5
Oggi h: 09:50 sereno Sereno 25 12 44 1022 10 N 5.5
Oggi h: 09:20 sereno Sereno 25 13 47 1022 10 SE 7.4
Oggi h: 08:50 sereno Sereno 24 12 47 1022 10 E 9.3
Oggi h: 08:20 sereno Sereno 22 12 53 1022 10 E 7.4
Oggi h: 07:50 sereno Sereno 21 12 56 1022 10 N 3.7
Oggi h: 07:20 poco_nuvoloso Poco Nuvoloso 20 12 59 1021 10 N 3.7
Oggi h: 06:50 nuvoloso Nuvoloso 18 12 67 1021 10 NE 7.4
Oggi h: 06:20 nuvoloso Nuvoloso 17 12 72 1021 10 E/NE 7.4
Oggi h: 05:50 nuvoloso Nuvoloso 17 11 67 1021 10 N 5.5
Oggi h: 05:20 sereno Sereno 17 12 72 1021 10 N 3.7
Oggi h: 04:50 poco_nuvoloso Poco Nuvoloso 18 12 67 1021 10 E/NE 7.4
Oggi h: 04:20 molto_nuvoloso Molto Nuvoloso 19 12 63 1021 10 E 11.1
Oggi h: 03:50 nuvoloso Nuvoloso 19 12 63 1021 10 N 5.5
Oggi h: 03:20 sereno Sereno 18 12 67 1021 10 E/SE 11.1
Oggi h: 02:50 nuvoloso Nuvoloso 19 12 63 1021 10 E 13
Oggi h: 02:20 molto_nuvoloso Molto Nuvoloso 20 13 64 1021 10 E 11.1
Oggi h: 01:50 molto_nuvoloso Molto Nuvoloso 20 14 68 1021 10 E 7.4
Oggi h: 01:20 molto_nuvoloso Molto Nuvoloso 20 15 72 1021 10 E 9.3
Oggi h: 00:50 molto_nuvoloso Molto Nuvoloso 20 15 72 1021 10 E 9.3
Oggi h: 00:20 molto_nuvoloso Molto Nuvoloso 20 15 72 1021 10 N 5.5
Ieri h: 23:50 nuvoloso Nuvoloso 20 15 72 1021 10 E 9.3
Ieri h: 23:20 poco_nuvoloso Poco Nuvoloso 20 16 77 1020 10 E 11.1
Ieri h: 22:50 nuvoloso Nuvoloso 22 16 68 1020 10 E/SE 11.1
Ieri h: 22:20 poco_nuvoloso Poco Nuvoloso 21 17 77 1020 10 SE 11.1
Ieri h: 21:50 poco_nuvoloso Poco Nuvoloso 22 18 78 1019 10 SE 11.1
Ieri h: 21:20 sereno Sereno 22 18 78 1019 10 E/SE 13
Ieri h: 20:50 sereno Sereno 22 17 73 1018 10 SE 13
Ieri h: 20:20 sereno Sereno 25 13 47 1018 10 N 3.7
Ieri h: 19:50 sereno Sereno 26 14 47 1018 10 O 7.4
Ieri h: 19:20 sereno Sereno 27 14 44 1018 10 O/SO 11.1
Ieri h: 18:50 sereno Sereno 27 15 47 1018 10 O 11.1
Ieri h: 18:20 sereno Sereno 27 14 44 1018 10 O/SO 14.8
Ieri h: 17:50 sereno Sereno 28 15 45 1018 10 O 13
Ieri h: 17:20 sereno Sereno 27 14 44 1018 10 O/SO 13
Ieri h: 16:50 poco_nuvoloso Poco Nuvoloso 27 14 44 1018 10 O/SO 16.7